Time;durP1;ratioP1;P1;durP2;ratioP2;P2;SDS_P1;SDS_P2;PMS_P1;PMS_P2;Temp;Humidity;BMP_temperature;BMP_pressure;BME280_temperature;BME280_humidity;BME280_pressure;Samples;Min_cycle;Max_cycle;Signal;HPM_P1;HPM_P2
2021/04/05 00:00:18;;;;;;;22.50;14.13;;;3.90;99.90;;;;;;6245820;23;20009;-69
2021/04/05 00:02:44;;;;;;;21.23;14.10;;;3.80;99.90;;;;;;6244108;23;20011;-70
2021/04/05 00:05:23;;;;;;;21.40;13.10;;;3.80;99.90;;;;;;6244146;23;20000;-70
2021/04/05 00:07:49;;;;;;;21.80;13.73;;;3.90;99.90;;;;;;6245837;23;20052;-70
2021/04/05 00:10:22;;;;;;;21.05;13.63;;;3.80;99.90;;;;;;6244179;23;20075;-70
2021/04/05 00:12:50;;;;;;;24.80;13.77;;;3.80;99.90;;;;;;6244073;23;20429;-70
2021/04/05 00:15:16;;;;;;;23.13;13.68;;;3.80;99.90;;;;;;6245648;23;20032;-70
2021/04/05 00:17:42;;;;;;;25.70;14.85;;;3.80;99.90;;;;;;6247558;23;19996;-70
2021/04/05 00:20:14;;;;;;;23.00;15.23;;;3.80;99.90;;;;;;6247715;23;20000;-70
2021/04/05 00:22:44;;;;;;;28.25;16.55;;;3.80;99.90;;;;;;6245730;23;20020;-69
2021/04/05 00:25:10;;;;;;;24.67;15.15;;;3.80;99.90;;;;;;6247669;23;20000;-69
2021/04/05 00:27:37;;;;;;;26.63;16.20;;;3.70;99.90;;;;;;6247689;23;19997;-70
2021/04/05 00:30:17;;;;;;;33.58;18.33;;;3.70;99.90;;;;;;6247199;23;20000;-70
2021/04/05 00:32:46;;;;;;;36.45;18.48;;;3.70;99.90;;;;;;6247561;23;20075;-70
2021/04/05 00:35:15;;;;;;;32.33;17.85;;;3.60;99.90;;;;;;6245971;23;20380;-70
2021/04/05 00:37:41;;;;;;;35.40;19.27;;;3.60;99.90;;;;;;6247444;23;20455;-70
2021/04/05 00:40:10;;;;;;;41.47;20.55;;;3.60;99.90;;;;;;6247499;23;20000;-70
2021/04/05 00:42:37;;;;;;;36.75;18.45;;;3.60;99.90;;;;;;6247373;23;20010;-69
2021/04/05 00:45:12;;;;;;;44.57;23.33;;;3.60;99.90;;;;;;6245788;23;20000;-69
2021/04/05 00:47:47;;;;;;;50.63;23.77;;;3.50;99.90;;;;;;6247507;23;20001;-69
2021/04/05 00:50:17;;;;;;;42.95;21.95;;;3.50;99.90;;;;;;6245843;23;20000;-69
2021/04/05 00:52:44;;;;;;;40.25;21.05;;;3.60;99.90;;;;;;6247269;23;20004;-69
2021/04/05 00:55:11;;;;;;;36.95;19.70;;;3.60;99.90;;;;;;6245374;23;20027;-70
2021/04/05 00:57:37;;;;;;;41.63;21.55;;;3.60;99.90;;;;;;6247391;23;20003;-70
2021/04/05 01:00:34;;;;;;;41.90;21.00;;;3.60;99.90;;;;;;6247340;23;20000;-70
2021/04/05 01:03:01;;;;;;;46.70;22.40;;;3.60;99.90;;;;;;6247353;23;20384;-70
2021/04/05 01:05:27;;;;;;;87.67;33.10;;;3.60;99.90;;;;;;6247280;23;20091;-70
2021/04/05 01:07:53;;;;;;;94.60;35.25;;;3.60;99.90;;;;;;6247303;23;20000;-70
2021/04/05 01:10:21;;;;;;;39.13;20.45;;;3.60;99.90;;;;;;6245563;23;20370;-70
2021/04/05 01:12:46;;;;;;;39.47;20.73;;;3.60;99.90;;;;;;6247111;23;20000;-70
2021/04/05 01:15:13;;;;;;;40.15;19.70;;;3.60;99.90;;;;;;6247180;23;20074;-70
2021/04/05 01:17:39;;;;;;;43.07;20.43;;;3.60;99.90;;;;;;6247212;23;20000;-70
2021/04/05 01:20:11;;;;;;;36.15;19.80;;;3.60;99.90;;;;;;6246820;23;20079;-70
2021/04/05 01:22:37;;;;;;;;;;;3.60;99.90;;;;;;6247501;23;20486;-71
2021/04/05 01:25:08;;;;;;;34.63;18.13;;;3.60;99.90;;;;;;6247171;22;19927;-71
2021/04/05 01:27:34;;;;;;;35.27;18.47;;;3.50;99.90;;;;;;6246630;23;20032;-71
2021/04/05 01:30:00;;;;;;;22.90;13.80;;;3.50;99.90;;;;;;6245439;23;20027;-70
2021/04/05 01:32:26;;;;;;;18.90;13.33;;;3.50;99.90;;;;;;6246966;23;20000;-70
2021/04/05 01:34:52;;;;;;;23.67;13.47;;;3.40;99.90;;;;;;6247005;23;19997;-71
2021/04/05 01:37:17;;;;;;;21.43;13.80;;;3.30;99.90;;;;;;6245401;23;20298;-70
2021/04/05 01:39:43;;;;;;;25.63;14.45;;;3.30;99.90;;;;;;6245361;23;19996;-70
2021/04/05 01:42:09;;;;;;;30.30;16.13;;;3.40;99.90;;;;;;6246568;23;20318;-71
2021/04/05 01:44:37;;;;;;;27.17;15.77;;;3.30;99.90;;;;;;6246903;23;20080;-70
2021/04/05 01:47:03;;;;;;;30.00;16.97;;;3.30;99.90;;;;;;6245279;23;20000;-70
2021/04/05 01:49:29;;;;;;;34.80;19.40;;;3.30;99.90;;;;;;6245156;23;20058;-70
2021/04/05 01:51:55;;;;;;;35.60;21.63;;;3.30;99.90;;;;;;6246735;23;20026;-69
2021/04/05 01:54:23;;;;;;;25.07;16.33;;;3.30;99.90;;;;;;6245198;23;20028;-69
2021/04/05 01:56:49;;;;;;;20.50;13.77;;;3.30;99.90;;;;;;6246520;23;20004;-70
2021/04/05 01:59:16;;;;;;;17.33;12.23;;;3.20;99.90;;;;;;6246383;23;20004;-70
2021/04/05 02:01:42;;;;;;;15.57;11.20;;;3.20;99.90;;;;;;6246694;23;20463;-70
2021/04/05 02:04:09;;;;;;;17.67;12.47;;;3.20;99.90;;;;;;6246711;23;20075;-68
2021/04/05 02:06:36;;;;;;;22.70;12.10;;;3.20;99.90;;;;;;6246689;23;20004;-68
2021/04/05 02:09:07;;;;;;;23.40;13.10;;;3.20;99.90;;;;;;6246645;23;20007;-67
2021/04/05 02:11:36;;;;;;;21.33;12.52;;;3.30;99.90;;;;;;6244987;23;20008;-68
2021/04/05 02:14:04;;;;;;;19.20;12.07;;;3.20;99.90;;;;;;6244940;23;20034;-68
2021/04/05 02:16:30;;;;;;;21.90;13.73;;;3.20;99.90;;;;;;6246240;23;20077;-68
2021/04/05 02:18:58;;;;;;;17.00;12.40;;;3.20;99.90;;;;;;6244918;23;20429;-68
2021/04/05 02:21:26;;;;;;;20.47;12.53;;;3.20;99.90;;;;;;6246572;23;20007;-68
2021/04/05 02:23:53;;;;;;;22.70;12.33;;;3.20;99.90;;;;;;6245925;23;20054;-68
2021/04/05 02:26:22;;;;;;;25.43;14.07;;;3.10;99.90;;;;;;6246460;23;20000;-69
2021/04/05 02:28:51;;;;;;;21.73;13.43;;;3.10;99.90;;;;;;6246516;23;20065;-69
2021/04/05 02:31:22;;;;;;;20.63;12.70;;;3.10;99.90;;;;;;6244893;23;20062;-68
2021/04/05 02:33:51;;;;;;;20.77;13.15;;;3.10;99.90;;;;;;6244893;23;20428;-68
2021/04/05 02:36:19;;;;;;;22.33;12.97;;;3.10;99.90;;;;;;6246419;23;19996;-69
2021/04/05 02:38:48;;;;;;;21.40;12.97;;;3.00;99.90;;;;;;6246049;23;20087;-69
2021/04/05 02:41:16;;;;;;;19.97;13.67;;;3.00;99.90;;;;;;6246365;23;20050;-69
2021/04/05 02:43:42;;;;;;;20.43;13.60;;;3.00;99.90;;;;;;6246057;23;20318;-68
2021/04/05 02:46:17;;;;;;;22.70;14.53;;;3.00;99.90;;;;;;6246297;23;19996;-69
2021/04/05 02:48:45;;;;;;;21.73;13.73;;;2.90;99.90;;;;;;6244754;23;20436;-68
2021/04/05 02:51:11;;;;;;;23.20;13.60;;;2.90;99.90;;;;;;6246186;23;20027;-68
2021/04/05 02:53:43;;;;;;;19.50;12.40;;;2.90;99.90;;;;;;6246228;23;20007;-68
2021/04/05 02:56:10;;;;;;;20.15;12.85;;;2.90;99.90;;;;;;6246256;23;20007;-68
2021/04/05 02:58:40;;;;;;;27.20;13.87;;;2.90;99.90;;;;;;6244666;23;20011;-69
2021/04/05 03:01:08;;;;;;;23.03;13.97;;;2.80;99.90;;;;;;6246235;23;20063;-69
2021/04/05 03:03:44;;;;;;;20.83;13.20;;;2.80;99.90;;;;;;6244200;23;20008;-70
2021/04/05 03:06:22;;;;;;;25.17;14.40;;;2.80;99.90;;;;;;6246211;23;20497;-68
2021/04/05 03:08:48;;;;;;;21.30;13.10;;;2.80;99.90;;;;;;6246163;23;20007;-69
2021/04/05 03:11:22;;;;;;;23.33;13.87;;;2.80;99.90;;;;;;6246002;23;20428;-70
2021/04/05 03:13:49;;;;;;;22.77;14.53;;;2.70;99.90;;;;;;6246066;23;20004;-71
2021/04/05 03:16:21;;;;;;;22.00;13.70;;;2.70;99.90;;;;;;6244474;23;20008;-71
2021/04/05 03:18:49;;;;;;;20.07;13.10;;;2.70;99.90;;;;;;6246015;23;20003;-72
2021/04/05 03:21:15;;;;;;;22.97;12.87;;;2.70;99.90;;;;;;6244376;23;20004;-71
2021/04/05 03:23:42;;;;;;;22.57;13.50;;;2.70;99.90;;;;;;6244858;23;20012;-71
2021/04/05 03:26:10;;;;;;;21.97;15.10;;;2.70;99.90;;;;;;6246025;22;20007;-71
2021/04/05 03:28:36;;;;;;;23.37;14.67;;;2.70;99.90;;;;;;6245849;23;20079;-71
2021/04/05 03:31:06;;;;;;;30.03;16.30;;;2.70;99.90;;;;;;6245907;23;20075;-71
2021/04/05 03:33:40;;;;;;;32.40;17.27;;;2.70;99.90;;;;;;6245994;23;20055;-70
2021/04/05 03:36:14;;;;;;;28.90;16.37;;;2.60;99.90;;;;;;6244452;23;20417;-71
2021/04/05 03:38:40;;;;;;;29.00;18.10;;;2.50;99.90;;;;;;6244336;23;20582;-72
2021/04/05 03:41:15;;;;;;;27.27;18.00;;;2.50;99.90;;;;;;6245533;23;20302;-70
2021/04/05 03:44:03;;;;;;;32.03;17.87;;;2.40;99.90;;;;;;6244325;23;20441;-70
2021/04/05 03:46:38;;;;;;;34.00;18.90;;;2.40;99.90;;;;;;6245956;23;20001;-71
2021/04/05 03:49:32;;;;;;;31.27;18.70;;;2.50;99.90;;;;;;6245910;23;20007;-71
2021/04/05 03:52:12;;;;;;;30.40;18.03;;;2.50;99.90;;;;;;6246909;23;20095;-70
2021/04/05 03:54:49;;;;;;;30.40;17.83;;;2.50;99.90;;;;;;6247996;23;20011;-69
2021/04/05 03:57:20;;;;;;;29.20;17.10;;;2.50;99.90;;;;;;6246365;23;20437;-70
2021/04/05 03:59:50;;;;;;;32.65;16.33;;;2.50;99.90;;;;;;6248026;23;20339;-70
2021/04/05 04:02:35;;;;;;;25.20;14.83;;;2.50;99.90;;;;;;6246222;23;20004;-71
2021/04/05 04:05:14;;;;;;;31.27;15.97;;;2.50;99.90;;;;;;6246356;23;20047;-70
2021/04/05 04:07:54;;;;;;;28.17;15.80;;;2.50;99.90;;;;;;6247841;23;20039;-71
2021/04/05 04:10:23;;;;;;;26.33;15.13;;;2.50;99.90;;;;;;6246189;23;20000;-71
2021/04/05 04:12:51;;;;;;;24.07;15.07;;;2.50;99.90;;;;;;6246080;23;20321;-70
2021/04/05 04:15:18;;;;;;;24.77;15.03;;;2.40;99.90;;;;;;6247785;23;20004;-70
2021/04/05 04:17:45;;;;;;;22.27;14.60;;;2.50;99.90;;;;;;6246181;23;20010;-71
2021/04/05 04:20:16;;;;;;;25.27;15.80;;;2.50;99.90;;;;;;6247719;23;20461;-70
2021/04/05 04:22:47;;;;;;;29.90;17.55;;;2.50;99.90;;;;;;6247347;23;20429;-71
2021/04/05 04:25:15;;;;;;;23.77;14.57;;;2.50;99.90;;;;;;6245462;23;20016;-71
2021/04/05 04:27:44;;;;;;;24.63;14.80;;;2.60;99.90;;;;;;6247712;23;20422;-70
2021/04/05 04:30:15;;;;;;;20.50;13.37;;;2.60;99.90;;;;;;6247657;23;20075;-69
2021/04/05 04:32:41;;;;;;;29.80;14.63;;;2.60;99.90;;;;;;6247869;23;20004;-70
2021/04/05 04:35:09;;;;;;;29.43;16.43;;;2.70;99.90;;;;;;6245979;23;20015;-71
2021/04/05 04:37:40;;;;;;;41.97;26.33;;;2.70;99.90;;;;;;6247820;23;20028;-71
2021/04/05 04:40:07;;;;;;;39.57;23.00;;;2.70;99.90;;;;;;6246007;23;20079;-71
2021/04/05 04:42:33;;;;;;;36.33;21.50;;;2.70;99.90;;;;;;6245890;23;20024;-69
2021/04/05 04:44:59;;;;;;;28.63;18.20;;;2.80;99.90;;;;;;6247432;23;19997;-70
2021/04/05 04:47:26;;;;;;;31.43;18.30;;;2.70;99.90;;;;;;6247513;23;20468;-71
2021/04/05 04:49:52;;;;;;;36.27;21.10;;;2.80;99.90;;;;;;6247396;23;19993;-72
2021/04/05 04:52:20;;;;;;;36.73;21.37;;;2.80;99.90;;;;;;6245617;23;20011;-72
2021/04/05 04:54:46;;;;;;;30.23;18.40;;;2.80;99.90;;;;;;6247411;23;20000;-72
2021/04/05 04:57:12;;;;;;;31.00;20.20;;;2.80;99.90;;;;;;6247075;23;20001;-71
2021/04/05 04:59:38;;;;;;;51.37;25.27;;;2.90;99.90;;;;;;6247376;23;20003;-70
2021/04/05 05:02:04;;;;;;;40.77;23.13;;;2.90;99.90;;;;;;6245680;23;20354;-70
2021/04/05 05:04:31;;;;;;;32.73;19.50;;;3.00;99.90;;;;;;6245769;23;20011;-70
2021/04/05 05:07:03;;;;;;;32.20;19.73;;;3.00;99.90;;;;;;6247155;23;20416;-70
2021/04/05 05:09:29;;;;;;;40.37;18.40;;;3.10;99.80;;;;;;6247273;23;19996;-70
2021/04/05 05:11:55;;;;;;;44.40;25.07;;;3.10;99.90;;;;;;6247209;23;20008;-70
2021/04/05 05:14:22;;;;;;;60.03;38.57;;;3.20;99.80;;;;;;6246599;23;20325;-69
2021/04/05 05:17:17;;;;;;;69.87;47.27;;;3.20;99.80;;;;;;6247397;23;20031;-72
2021/04/05 05:19:44;;;;;;;78.07;55.67;;;3.30;99.70;;;;;;6245650;23;20075;-72
2021/04/05 05:22:13;;;;;;;82.30;50.70;;;3.40;99.50;;;;;;6247123;23;20000;-70
2021/04/05 05:24:44;;;;;;;79.73;43.33;;;3.50;99.40;;;;;;6246493;23;20099;-71
2021/04/05 05:27:11;;;;;;;51.90;23.10;;;3.60;98.90;;;;;;6247085;23;19996;-71
2021/04/05 05:29:38;;;;;;;32.30;17.97;;;3.70;97.80;;;;;;6246712;23;20299;-74
2021/04/05 05:32:05;;;;;;;39.63;17.17;;;3.80;98.20;;;;;;6245252;23;20008;-72
2021/04/05 05:34:32;;;;;;;22.23;13.75;;;3.90;98.20;;;;;;6246805;23;20007;-71
2021/04/05 05:36:58;;;;;;;19.15;12.73;;;4.00;97.90;;;;;;6246512;23;20004;-71
2021/04/05 05:39:26;;;;;;;29.77;16.10;;;4.10;96.50;;;;;;6245322;23;20324;-70
2021/04/05 05:42:16;;;;;;;23.55;14.40;;;4.20;96.20;;;;;;6245074;23;20007;-72
2021/04/05 05:45:03;;;;;;;25.25;14.38;;;4.20;96.00;;;;;;6245192;23;20004;-70
2021/04/05 05:47:48;;;;;;;30.70;16.60;;;4.30;96.40;;;;;;6246655;23;20005;-71
2021/04/05 05:50:28;;;;;;;25.58;14.07;;;4.40;97.20;;;;;;6245040;23;20451;-70
2021/04/05 05:53:24;;;;;;;30.38;15.30;;;4.50;96.70;;;;;;6246675;23;19997;-70
2021/04/05 05:56:12;;;;;;;30.42;13.23;;;4.60;96.80;;;;;;6246784;23;20008;-71
2021/04/05 05:58:45;;;;;;;21.08;13.38;;;4.70;96.50;;;;;;6246274;23;20026;-71
2021/04/05 06:01:39;;;;;;;24.90;14.15;;;4.90;96.60;;;;;;6246298;23;20448;-70
2021/04/05 06:04:36;;;;;;;21.75;12.40;;;4.90;95.70;;;;;;6245003;23;20067;-69
2021/04/05 06:07:27;;;;;;;29.05;15.13;;;5.10;96.10;;;;;;6244999;23;20000;-69
2021/04/05 06:10:09;;;;;;;26.42;15.05;;;5.20;95.90;;;;;;6244966;23;20007;-70
2021/04/05 06:12:44;;;;;;;23.73;15.55;;;5.30;94.70;;;;;;6246485;23;20004;-69
2021/04/05 06:15:18;;;;;;;46.08;21.60;;;5.40;95.70;;;;;;6246334;23;20083;-69
2021/04/05 06:18:04;;;;;;;44.10;17.58;;;5.50;96.50;;;;;;6246509;23;20000;-69
2021/04/05 06:20:53;;;;;;;36.05;18.63;;;5.70;93.90;;;;;;6244564;23;20091;-69
2021/04/05 06:23:51;;;;;;;30.10;16.58;;;5.70;95.50;;;;;;6246139;23;20014;-71
2021/04/05 06:26:17;;;;;;;31.27;17.67;;;5.80;94.50;;;;;;6246313;23;20001;-69
2021/04/05 06:28:57;;;;;;;27.80;16.45;;;5.90;96.60;;;;;;6246456;23;20003;-72
2021/04/05 06:31:41;;;;;;;26.55;16.98;;;6.00;95.60;;;;;;6246387;23;20401;-71
2021/04/05 06:34:23;;;;;;;26.83;15.50;;;6.20;97.90;;;;;;6244814;23;20405;-70
2021/04/05 06:37:13;;;;;;;22.80;14.80;;;6.30;95.10;;;;;;6246120;23;20004;-71
2021/04/05 06:39:47;;;;;;;33.13;17.15;;;6.50;93.40;;;;;;6246346;23;20032;-70
2021/04/05 06:42:39;;;;;;;28.40;14.45;;;6.60;93.10;;;;;;6246337;23;20033;-70
2021/04/05 06:45:27;;;;;;;36.58;19.25;;;6.60;91.60;;;;;;6246253;23;20027;-69
2021/04/05 06:48:30;;;;;;;19.50;12.15;;;7.00;99.90;;;;;;6246377;23;20004;-74
2021/04/05 06:51:10;;;;;;;21.52;11.70;;;6.90;86.50;;;;;;6244480;23;20000;-70
2021/04/05 06:54:10;;;;;;;19.40;12.35;;;7.00;90.50;;;;;;6246298;23;20004;-72
2021/04/05 06:56:48;;;;;;;17.45;10.23;;;7.00;85.90;;;;;;6244511;23;20007;-71
2021/04/05 06:59:33;;;;;;;14.88;9.77;;;7.10;81.40;;;;;;6245826;23;20436;-70
2021/04/05 07:02:24;;;;;;;19.65;9.73;;;7.00;80.00;;;;;;6246284;22;20091;-71
2021/04/05 07:04:58;;;;;;;14.48;9.18;;;7.20;87.90;;;;;;6246151;22;20008;-71
2021/04/05 07:07:50;;;;;;;19.48;9.68;;;7.30;79.80;;;;;;6244413;23;20485;-70
2021/04/05 07:11:03;;;;;;;20.52;10.90;;;7.40;82.80;;;;;;6246224;22;19996;-71
2021/04/05 07:13:39;;;;;;;17.63;10.98;;;7.50;81.40;;;;;;6204531;23;20012;-72
2021/04/05 07:16:19;;;;;;;15.65;11.13;;;7.60;83.90;;;;;;6245618;23;20464;-70
2021/04/05 07:19:05;;;;;;;17.30;11.00;;;7.60;78.60;;;;;;6244276;23;20298;-71
2021/04/05 07:21:39;;;;;;;16.30;9.18;;;7.70;77.40;;;;;;6246010;23;20008;-71
2021/04/05 07:24:46;;;;;;;14.90;9.70;;;7.80;75.00;;;;;;6245511;22;20020;-72
2021/04/05 07:27:50;;;;;;;26.58;14.05;;;8.00;75.00;;;;;;6245476;22;20452;-75
2021/04/05 07:30:32;;;;;;;19.90;11.02;;;;;;;;;;6207947;23;20004;-73
2021/04/05 07:32:58;;;;;;;;;;;9.30;91.40;;;;;;6246359;23;20004;-72
2021/04/05 07:35:50;;;;;;;22.15;12.45;;;10.20;84.50;;;;;;6245688;23;19911;-72
2021/04/05 07:38:19;;;;;;;16.65;11.15;;;10.70;76.90;;;;;;6246215;23;20333;-70
2021/04/05 07:40:54;;;;;;;15.40;9.88;;;11.00;93.00;;;;;;6245808;23;20000;-74
2021/04/05 07:43:23;;;;;;;17.65;9.82;;;11.10;79.80;;;;;;6244162;23;20091;-73
2021/04/05 07:46:14;;;;;;;15.05;9.85;;;11.00;70.60;;;;;;6244113;23;20321;-71
2021/04/05 07:48:47;;;;;;;12.85;8.57;;;10.40;62.50;;;;;;6243968;23;20360;-71
2021/04/05 07:51:49;;;;;;;13.57;8.75;;;10.20;64.40;;;;;;6245703;22;20015;-69
2021/04/05 07:54:19;;;;;;;13.45;8.10;;;10.70;71.40;;;;;;6244607;23;20011;-72
2021/04/05 07:56:50;;;;;;;13.25;8.63;;;11.10;67.30;;;;;;6243986;23;20011;-70
2021/04/05 07:59:43;;;;;;;11.23;7.20;;;11.30;68.60;;;;;;6245710;22;20007;-72
2021/04/05 08:02:11;;;;;;;10.75;7.70;;;11.80;65.90;;;;;;6245737;22;20008;-71
2021/04/05 08:04:43;;;;;;;17.25;7.40;;;12.00;60.40;;;;;;6243830;23;20000;-71
2021/04/05 08:07:29;;;;;;;15.15;7.60;;;12.70;70.80;;;;;;6243737;23;20004;-69
2021/04/05 08:10:39;;;;;;;12.43;7.97;;;13.00;63.20;;;;;;6243977;23;20337;-71
2021/04/05 08:13:17;;;;;;;11.32;7.22;;;13.30;60.90;;;;;;6242061;22;20004;-70
2021/04/05 08:16:08;;;;;;;13.98;6.82;;;12.80;59.10;;;;;;6240933;23;20007;-69
2021/04/05 08:18:55;;;;;;;10.93;8.00;;;13.30;65.60;;;;;;6243494;23;20010;-70
2021/04/05 08:21:30;;;;;;;9.98;7.53;;;;;;;;;;6245601;22;20055;-68
2021/04/05 08:24:20;;;;;;;12.93;8.43;;;13.30;56.80;;;;;;6242999;23;20016;-69
2021/04/05 08:26:59;;;;;;;10.50;7.70;;;13.00;58.30;;;;;;6243663;23;20437;-72
2021/04/05 08:29:39;;;;;;;15.75;7.90;;;13.40;58.40;;;;;;6241935;23;20036;-68
2021/04/05 08:32:47;;;;;;;9.43;6.50;;;13.50;58.00;;;;;;6244375;22;20012;-67
2021/04/05 08:35:40;;;;;;;16.13;7.97;;;13.80;57.70;;;;;;6245405;22;20433;-70
2021/04/05 08:38:38;;;;;;;12.40;7.63;;;13.90;60.00;;;;;;6246717;22;20448;-67
2021/04/05 08:41:26;;;;;;;10.80;7.45;;;14.00;61.20;;;;;;6247074;23;19997;-71
2021/04/05 08:44:17;;;;;;;13.38;8.07;;;14.10;53.70;;;;;;6247426;22;20055;-73
2021/04/05 08:46:44;;;;;;;10.05;7.78;;;13.50;55.60;;;;;;6245779;23;20001;-74
2021/04/05 08:49:16;;;;;;;10.38;7.68;;;13.40;54.70;;;;;;6245599;23;20001;-74
2021/04/05 08:51:44;;;;;;;12.13;8.48;;;13.40;54.70;;;;;;6246598;22;20372;-74
2021/04/05 08:54:15;;;;;;;16.00;8.18;;;13.30;55.50;;;;;;6245277;23;20058;-74
2021/04/05 08:57:01;;;;;;;10.27;7.07;;;13.50;54.90;;;;;;6245653;23;20001;-72
2021/04/05 08:59:37;;;;;;;8.55;6.10;;;13.70;50.00;;;;;;6245644;23;19996;-73
2021/04/05 09:02:12;;;;;;;11.00;7.00;;;14.00;49.60;;;;;;6247304;22;20008;-73
2021/04/05 09:04:40;;;;;;;10.95;6.75;;;14.10;53.50;;;;;;6247192;22;20007;-71
2021/04/05 09:07:28;;;;;;;13.25;8.98;;;13.80;51.20;;;;;;6245537;23;20004;-70
2021/04/05 09:09:59;;;;;;;11.80;6.55;;;13.80;52.00;;;;;;6245662;23;20066;-72
2021/04/05 09:12:28;;;;;;;9.15;6.57;;;13.70;49.20;;;;;;6246963;22;20079;-74
2021/04/05 09:15:32;;;;;;;10.15;7.07;;;13.90;53.40;;;;;;6245395;23;20087;-71
2021/04/05 09:18:42;;;;;;;9.32;6.55;;;13.70;52.20;;;;;;6247118;22;20005;-75
2021/04/05 09:21:33;;;;;;;11.95;5.78;;;13.80;52.90;;;;;;6245304;23;20007;-71
2021/04/05 09:24:25;;;;;;;8.18;5.70;;;14.50;64.20;;;;;;6244802;23;20024;-73
2021/04/05 09:26:56;;;;;;;6.88;5.40;;;14.90;55.60;;;;;;6245309;23;20001;-71
2021/04/05 09:29:40;;;;;;;;;;;15.90;60.10;;;;;;6245876;23;20005;-68
2021/04/05 09:32:17;;;;;;;6.38;5.07;;;15.90;54.00;;;;;;6246817;22;20024;-68
2021/04/05 09:35:14;;;;;;;7.43;5.20;;;16.30;57.10;;;;;;6245320;23;20077;-69
2021/04/05 09:37:59;;;;;;;9.18;6.28;;;15.60;44.60;;;;;;6246521;23;20449;-70
2021/04/05 09:40:45;;;;;;;8.70;6.00;;;15.30;49.70;;;;;;6245087;23;20000;-71
2021/04/05 09:43:11;;;;;;;7.68;5.43;;;15.90;53.60;;;;;;6246541;22;20007;-70
2021/04/05 09:46:05;;;;;;;7.63;5.57;;;16.10;52.60;;;;;;6245094;23;20000;-69
2021/04/05 09:48:49;;;;;;;13.50;5.97;;;16.60;45.30;;;;;;6246407;22;20031;-70
2021/04/05 09:51:52;;;;;;;12.80;5.95;;;16.60;49.70;;;;;;6244999;23;20451;-70
2021/04/05 09:54:36;;;;;;;9.00;5.65;;;16.50;45.80;;;;;;6246150;23;20004;-71
2021/04/05 09:57:14;;;;;;;6.03;5.28;;;16.70;45.80;;;;;;6244944;23;20030;-70
2021/04/05 09:59:48;;;;;;;10.65;5.38;;;15.40;43.50;;;;;;6244897;23;20079;-72
2021/04/05 10:02:15;;;;;;;11.10;6.30;;;15.30;46.90;;;;;;6246447;22;20003;-69
2021/04/05 10:04:44;;;;;;;6.85;5.03;;;16.10;50.40;;;;;;6246592;22;20003;-71
2021/04/05 10:07:12;;;;;;;5.63;4.70;;;16.40;46.80;;;;;;6244659;23;20031;-70
2021/04/05 10:09:40;;;;;;;7.13;5.38;;;16.40;48.10;;;;;;6246186;22;20011;-72
2021/04/05 10:12:08;;;;;;;7.82;5.30;;;16.90;45.80;;;;;;6244742;23;20476;-73
2021/04/05 10:14:40;;;;;;;9.48;5.15;;;17.20;47.70;;;;;;6244657;23;20440;-70
2021/04/05 10:17:07;;;;;;;10.68;5.45;;;16.10;43.10;;;;;;6244337;23;20087;-70
2021/04/05 10:19:36;;;;;;;8.27;6.05;;;16.90;46.60;;;;;;6245965;22;20389;-71
2021/04/05 10:22:10;;;;;;;7.00;5.20;;;16.20;44.00;;;;;;6244730;23;20008;-72
2021/04/05 10:24:42;;;;;;;11.30;5.80;;;15.90;44.40;;;;;;6245762;22;20075;-70
2021/04/05 10:27:12;;;;;;;9.27;6.00;;;15.60;46.10;;;;;;6247086;22;20007;-75
2021/04/05 10:29:39;;;;;;;12.70;5.50;;;15.40;44.60;;;;;;6246335;22;20020;-71
2021/04/05 10:32:07;;;;;;;9.55;6.10;;;15.30;43.30;;;;;;6245927;22;20310;-72
2021/04/05 10:34:35;;;;;;;6.43;5.10;;;15.30;46.10;;;;;;6244412;23;20000;-71
2021/04/05 10:37:17;;;;;;;7.20;5.20;;;14.60;43.50;;;;;;6243853;22;20000;-71
2021/04/05 10:39:50;;;;;;;;;;;14.50;46.50;;;;;;6244188;23;20087;-73
2021/04/05 10:42:20;;;;;;;5.97;5.35;;;15.20;46.50;;;;;;6245670;22;19957;-72
2021/04/05 10:44:48;;;;;;;6.15;4.47;;;15.80;46.30;;;;;;6244405;23;20005;-71
2021/04/05 10:47:20;;;;;;;7.07;5.05;;;17.90;41.50;;;;;;6246034;22;20133;-72
2021/04/05 10:49:48;;;;;;;6.90;5.45;;;;;;;;;;6244498;23;20023;-70
2021/04/05 10:52:27;;;;;;;8.27;4.97;;;20.20;39.20;;;;;;6244277;23;20000;-71
2021/04/05 10:54:55;;;;;;;6.53;4.80;;;20.30;39.60;;;;;;6244427;23;20022;-70
2021/04/05 10:57:39;;;;;;;7.10;5.30;;;21.40;35.60;;;;;;6244374;23;20004;-71
2021/04/05 11:00:14;;;;;;;8.63;5.10;;;20.80;36.40;;;;;;6245885;22;20083;-72
2021/04/05 11:02:48;;;;;;;10.13;5.43;;;21.20;35.00;;;;;;6244451;23;20083;-72
2021/04/05 11:05:19;;;;;;;7.43;5.50;;;22.20;33.00;;;;;;6244354;23;20421;-71
2021/04/05 11:07:47;;;;;;;7.53;5.13;;;22.50;30.60;;;;;;6245958;22;20103;-71
2021/04/05 11:10:24;;;;;;;7.68;4.95;;;24.30;31.80;;;;;;6244081;23;20007;-73
2021/04/05 11:12:57;;;;;;;5.70;4.50;;;25.30;29.30;;;;;;6245496;22;20401;-71
2021/04/05 11:15:27;;;;;;;6.40;4.80;;;26.40;29.30;;;;;;6245833;22;20317;-71
2021/04/05 11:17:54;;;;;;;5.30;4.38;;;27.00;28.80;;;;;;6246221;22;19996;-70
2021/04/05 11:20:26;;;;;;;5.85;4.47;;;25.10;27.50;;;;;;6244003;23;20004;-73
2021/04/05 11:22:55;;;;;;;;;;;25.50;28.70;;;;;;6246264;22;20039;-72
2021/04/05 11:25:28;;;;;;;4.32;3.83;;;25.30;27.20;;;;;;6245896;22;20337;-71
2021/04/05 11:28:08;;;;;;;4.60;3.40;;;26.30;28.30;;;;;;6244189;23;20058;-70
2021/04/05 11:30:36;;;;;;;6.55;4.70;;;;;;;;;;6245735;22;19996;-70
2021/04/05 11:33:04;;;;;;;5.90;3.60;;;25.80;27.60;;;;;;6245285;23;20266;-68
2021/04/05 11:35:32;;;;;;;4.75;3.78;;;25.20;26.90;;;;;;6245814;22;20000;-68
2021/04/05 11:38:16;;;;;;;3.55;3.25;;;25.60;27.40;;;;;;6244089;23;20003;-71
2021/04/05 11:40:46;;;;;;;4.07;3.67;;;26.20;28.10;;;;;;6244025;23;20054;-69
2021/04/05 11:43:19;;;;;;;3.90;3.47;;;27.40;28.10;;;;;;6244034;23;20008;-66
2021/04/05 11:45:53;;;;;;;4.63;3.10;;;27.70;27.00;;;;;;6245707;22;20011;-67
2021/04/05 11:48:21;;;;;;;4.03;3.20;;;26.90;25.00;;;;;;6245214;22;20422;-68
2021/04/05 11:50:49;;;;;;;4.68;3.67;;;27.00;26.10;;;;;;6245550;22;20321;-68
2021/04/05 11:53:27;;;;;;;9.55;3.38;;;;;;;;;;6245090;22;20372;-67
2021/04/05 11:56:13;;;;;;;4.72;3.70;;;;;;;;;;6245065;23;20012;-67
2021/04/05 11:58:40;;;;;;;7.75;4.13;;;;;;;;;;6245517;23;20054;-68
2021/04/05 12:01:12;;;;;;;7.35;3.53;;;;;;;;;;6245546;23;20008;-69
2021/04/05 12:03:59;;;;;;;3.38;3.08;;;;;;;;;;6245355;23;20364;-68
2021/04/05 12:06:44;;;;;;;4.95;4.22;;;;;;;;;;6245737;23;20007;-71
2021/04/05 12:09:21;;;;;;;4.18;3.75;;;;;;;;;;6245526;23;20367;-69
2021/04/05 12:11:49;;;;;;;5.65;3.60;;;;;;;;;;6243753;23;20422;-67
2021/04/05 12:14:27;;;;;;;5.05;3.75;;;;;;;;;;6245508;23;20015;-66
2021/04/05 12:16:54;;;;;;;4.15;3.42;;;;;;;;;;6247492;23;19996;-70
2021/04/05 12:19:30;;;;;;;5.78;4.20;;;;;;;;;;6245663;23;20428;-73
2021/04/05 12:21:57;;;;;;;5.97;3.88;;;;;;;;;;6247189;23;20027;-70
2021/04/05 12:24:31;;;;;;;4.93;3.50;;;;;;;;;;6246904;23;20012;-71
2021/04/05 12:27:11;;;;;;;8.48;4.95;;;;;;;;;;6247505;22;20000;-69
2021/04/05 12:29:39;;;;;;;5.97;3.88;;;;;;;;;;6247515;23;20008;-69
2021/04/05 12:32:06;;;;;;;3.58;3.28;;;;;;;;;;6247176;22;20079;-71
2021/04/05 12:34:34;;;;;;;3.60;3.13;;;;;;;;;;6245744;23;20015;-71
2021/04/05 12:37:01;;;;;;;5.05;4.13;;;;;;;;;;6245702;23;20027;-68
2021/04/05 12:39:37;;;;;;;6.22;4.35;;;;;;;;;;6245669;23;20075;-72
2021/04/05 12:42:10;;;;;;;4.18;3.67;;;;;;;;;;6246878;23;20082;-72
2021/04/05 12:44:38;;;;;;;6.82;4.00;;;;;;;;;;6247073;23;20004;-73
2021/04/05 12:47:06;;;;;;;3.30;3.05;;;;;;;;;;6247383;23;20000;-71
2021/04/05 12:49:43;;;;;;;5.30;3.20;;;;;;;;;;6247112;23;20046;-72
2021/04/05 12:52:12;;;;;;;5.63;3.40;;;;;;;;;;6245598;23;20012;-71
2021/04/05 12:54:42;;;;;;;3.95;3.30;;;;;;;;;;6245628;23;20429;-71
2021/04/05 12:57:10;;;;;;;6.95;3.15;;;;;;;;;;6247199;23;20039;-71
2021/04/05 12:59:37;;;;;;;4.45;3.38;;;;;;;;;;6245634;23;20367;-73
2021/04/05 13:02:06;;;;;;;4.07;3.28;;;;;;;;;;6247140;23;20000;-71
2021/04/05 13:04:34;;;;;;;3.55;3.20;;;;;;;;;;6247011;23;20056;-72
2021/04/05 13:07:11;;;;;;;4.68;3.30;;;;;;;;;;6247190;23;20019;-71
2021/04/05 13:10:12;;;;;;;3.20;2.90;;;;;;;;;;6247121;23;20437;-72
2021/04/05 13:12:43;;;;;;;4.88;3.10;;;;;;;;;;6129878;23;20505;-74
2021/04/05 13:15:19;;;;;;;4.50;3.75;;;;;;;;;;6226069;23;20329;-74
2021/04/05 13:17:53;;;;;;;4.03;3.00;;;;;;;;;;6247101;23;20004;-72
2021/04/05 13:20:30;;;;;;;4.13;3.25;;;35.10;21.80;;;;;;6246944;23;19996;-73
2021/04/05 13:23:01;;;;;;;4.47;3.10;;;35.30;22.30;;;;;;6245230;23;20008;-73
2021/04/05 13:25:53;;;;;;;3.03;2.53;;;33.50;22.00;;;;;;6246670;22;20035;-73
2021/04/05 13:28:22;;;;;;;4.53;3.22;;;34.10;22.40;;;;;;6245188;23;20004;-75
2021/04/05 13:30:50;;;;;;;3.75;3.42;;;33.50;22.00;;;;;;6246595;22;20000;-71